createdAt,value
2022-10-14T00:02:19.458Z,101470.94
2022-10-14T00:07:20.048Z,101472.31
2022-10-14T00:12:18.994Z,101456.66
2022-10-14T00:17:17.898Z,101458.63
2022-10-14T00:22:17.667Z,101448.81
2022-10-14T00:27:18.123Z,101437.94
2022-10-14T00:32:17.524Z,101441.88
2022-10-14T00:37:16.321Z,101440.03
2022-10-14T00:42:17.461Z,101446.16
2022-10-14T00:47:16.402Z,101441.81
2022-10-14T00:52:17.938Z,101441.22
2022-10-14T00:57:19.088Z,101448.22
2022-10-14T01:02:18.238Z,101451.63
2022-10-14T01:07:25.486Z,101447.53
2022-10-14T01:12:34.584Z,101444.78
2022-10-14T01:17:49.564Z,101435.50
2022-10-14T01:22:59.548Z,101431.69
2022-10-14T01:28:24.418Z,101436.09
2022-10-14T01:33:27.963Z,101429.69
2022-10-14T01:38:32.137Z,101427.34
2022-10-14T01:43:35.349Z,101437.47
2022-10-14T01:48:38.314Z,101435.91
2022-10-14T01:53:39.516Z,101430.84
2022-10-14T01:58:40.890Z,101439.66
2022-10-14T02:03:43.218Z,101435.84
2022-10-14T02:08:56.377Z,101435.63
2022-10-14T02:14:12.264Z,101426.91
2022-10-14T02:19:24.856Z,101431.88
2022-10-14T02:24:28.272Z,101433.16
2022-10-14T02:29:29.006Z,101435.47
2022-10-14T02:34:29.552Z,101437.09
2022-10-14T02:39:32.589Z,101442.38
2022-10-14T02:44:31.556Z,101443.41
2022-10-14T02:49:31.876Z,101433.72
2022-10-14T02:54:31.731Z,101422.88
2022-10-14T02:59:30.669Z,101424.56
2022-10-14T03:04:31.529Z,101418.22
2022-10-14T03:09:30.418Z,101424.69
2022-10-14T03:14:33.610Z,101424.03
2022-10-14T03:19:35.718Z,101414.34
2022-10-14T03:24:34.917Z,101415.09
2022-10-14T03:29:53.044Z,101412.16
2022-10-14T03:34:56.763Z,101408.81
2022-10-14T03:39:56.926Z,101411.94
2022-10-14T03:44:56.604Z,101416.03
2022-10-14T03:50:00.977Z,101412.63
2022-10-14T03:55:11.341Z,101411.16
2022-10-14T04:00:14.621Z,101421.03
2022-10-14T04:05:15.245Z,101409.53
2022-10-14T04:10:16.991Z,101407.34
2022-10-14T04:15:22.816Z,101403.69
2022-10-14T04:20:38.630Z,101403.47
2022-10-14T04:25:39.513Z,101398.88
2022-10-14T04:30:39.312Z,101407.00
2022-10-14T04:35:42.559Z,101405.19
2022-10-14T04:40:49.891Z,101407.34
2022-10-14T04:45:49.054Z,101413.31
2022-10-14T04:50:56.729Z,101404.72
2022-10-14T04:56:10.041Z,101414.81
2022-10-14T05:01:14.806Z,101413.41
2022-10-14T05:06:16.161Z,101417.44
2022-10-14T05:11:16.808Z,101404.22
2022-10-14T05:16:22.325Z,101411.56
2022-10-14T05:21:22.470Z,101414.66
2022-10-14T05:26:28.282Z,101413.53
2022-10-14T05:31:30.370Z,101414.47
2022-10-14T05:36:51.781Z,101415.03
2022-10-14T05:41:52.847Z,101419.28
2022-10-14T05:46:56.202Z,101427.28
2022-10-14T05:51:58.448Z,101424.38
2022-10-14T05:56:58.374Z,101424.09
2022-10-14T06:02:29.512Z,101430.19
2022-10-14T06:07:31.560Z,101434.81
2022-10-14T06:12:33.004Z,101435.19
2022-10-14T06:17:33.120Z,101436.41
2022-10-14T06:22:33.612Z,101427.97
2022-10-14T06:27:32.880Z,101429.94
2022-10-14T06:32:32.268Z,101433.00
2022-10-14T06:37:31.444Z,101437.81
2022-10-14T06:42:33.810Z,101440.28
2022-10-14T06:47:33.727Z,101434.78
2022-10-14T06:52:35.623Z,101440.97
2022-10-14T06:57:35.913Z,101444.88
2022-10-14T07:02:34.839Z,101436.91
2022-10-14T07:07:52.018Z,101428.38
2022-10-14T07:12:56.259Z,101431.63
2022-10-14T07:17:55.278Z,101427.94
2022-10-14T07:22:56.987Z,101432.44
2022-10-14T07:27:57.421Z,101422.53
2022-10-14T07:32:56.614Z,101417.91
2022-10-14T07:37:56.414Z,101421.03
2022-10-14T07:42:57.472Z,101418.69
2022-10-14T07:47:56.229Z,101414.13
2022-10-14T07:52:58.889Z,101416.78
2022-10-14T07:58:01.083Z,101413.72
2022-10-14T08:02:59.974Z,101406.56
2022-10-14T08:07:58.776Z,101411.38
2022-10-14T08:12:58.386Z,101403.47
2022-10-14T08:18:01.483Z,101398.22
2022-10-14T08:23:00.849Z,101400.88
2022-10-14T08:28:00.086Z,101401.41
2022-10-14T08:33:00.774Z,101401.38
2022-10-14T08:38:12.819Z,101397.88
2022-10-14T08:43:23.261Z,101395.53
2022-10-14T08:48:29.595Z,101391.63
2022-10-14T08:53:34.718Z,101396.72
2022-10-14T08:58:36.034Z,101396.59
2022-10-14T09:03:37.108Z,101393.00
2022-10-14T09:08:42.292Z,101391.53
2022-10-14T09:13:43.958Z,101388.81
2022-10-14T09:18:53.835Z,101380.88
2022-10-14T09:24:00.154Z,101370.34
2022-10-14T09:28:59.695Z,101375.09
2022-10-14T09:34:26.377Z,101378.88
2022-10-14T09:39:26.061Z,101366.22
2022-10-14T09:44:28.267Z,101372.81
2022-10-14T09:49:36.031Z,101367.59
2022-10-14T09:54:35.980Z,101359.88
2022-10-14T09:59:39.534Z,101361.09
2022-10-14T10:04:47.192Z,101353.31
2022-10-14T10:09:55.448Z,101344.56
2022-10-14T10:14:58.909Z,101340.50
2022-10-14T10:20:20.268Z,101335.56
2022-10-14T10:25:21.370Z,101333.25
2022-10-14T10:30:25.862Z,101330.72
2022-10-14T10:35:40.233Z,101328.50
2022-10-14T10:40:42.707Z,101321.75
2022-10-14T10:45:57.821Z,101309.06
2022-10-14T10:51:03.726Z,101315.75
2022-10-14T10:56:18.626Z,101305.03
2022-10-14T11:01:37.371Z,101301.13
2022-10-14T11:07:18.178Z,101287.19
2022-10-14T11:12:24.581Z,101286.44
2022-10-14T11:17:30.063Z,101282.03
2022-10-14T11:22:46.198Z,101275.69
2022-10-14T11:27:52.239Z,101255.63
2022-10-14T11:33:06.682Z,101262.72
2022-10-14T11:38:21.044Z,101259.38
2022-10-14T11:43:27.912Z,101249.00
2022-10-14T11:48:38.620Z,101244.06
2022-10-14T11:53:54.837Z,101243.59
2022-10-14T11:59:14.350Z,101246.94
2022-10-14T12:04:28.737Z,101241.72
2022-10-14T12:09:41.532Z,101227.75
2022-10-14T12:14:44.906Z,101228.03
2022-10-14T12:19:46.783Z,101220.19
2022-10-14T12:24:51.187Z,101222.53
2022-10-14T12:29:52.272Z,101222.97
2022-10-14T12:34:53.905Z,101216.19
2022-10-14T12:39:58.120Z,101212.88
2022-10-14T12:45:01.684Z,101213.47
2022-10-14T12:50:03.675Z,101203.41
2022-10-14T12:55:13.324Z,101214.88
2022-10-14T13:00:33.768Z,101196.22
2022-10-14T13:05:37.304Z,101201.53
2022-10-14T13:11:11.151Z,101197.53
2022-10-14T13:16:10.734Z,101189.38
2022-10-14T13:21:12.109Z,101203.50
2022-10-14T13:26:36.536Z,101206.66
2022-10-14T13:31:43.657Z,101209.44
2022-10-14T13:36:58.028Z,101222.59
2022-10-14T13:42:00.623Z,101231.31
2022-10-14T13:47:13.535Z,101224.69
2022-10-14T13:52:20.146Z,101225.75
2022-10-14T14:02:49.044Z,101235.25
2022-10-14T14:08:30.608Z,101221.50
2022-10-14T14:13:27.750Z,101232.84
2022-10-14T14:18:56.241Z,101243.28
2022-10-14T14:24:02.536Z,101245.38
2022-10-14T14:29:06.125Z,101244.50
2022-10-14T14:34:06.680Z,101248.34
2022-10-14T14:39:07.067Z,101250.94
2022-10-14T14:44:24.641Z,101255.19
2022-10-14T14:49:39.495Z,101255.19
2022-10-14T14:54:46.026Z,101255.63
2022-10-14T14:59:57.884Z,101257.44
2022-10-14T15:05:12.458Z,101260.94
2022-10-14T15:10:24.511Z,101258.88
2022-10-14T15:15:31.143Z,101270.28
2022-10-14T15:20:32.642Z,101274.53
2022-10-14T15:25:32.572Z,101276.44
2022-10-14T15:30:39.117Z,101273.03
2022-10-14T15:35:43.839Z,101274.25
2022-10-14T15:40:47.806Z,101275.22
2022-10-14T15:46:13.592Z,101280.69
2022-10-14T15:51:21.121Z,101281.38
2022-10-14T15:56:21.263Z,101292.69
2022-10-14T16:02:01.137Z,101294.97
2022-10-14T16:07:04.098Z,101302.63
2022-10-14T16:12:03.248Z,101305.97
2022-10-14T16:17:04.585Z,101309.63
2022-10-14T16:22:05.954Z,101311.56
2022-10-14T16:27:06.069Z,101315.47
2022-10-14T16:32:11.154Z,101309.72
2022-10-14T16:37:17.264Z,101312.84
2022-10-14T16:42:19.868Z,101314.72
2022-10-14T16:47:21.881Z,101320.59
2022-10-14T16:52:21.416Z,101323.06
2022-10-14T16:57:20.822Z,101322.22
2022-10-14T17:02:22.838Z,101325.41
2022-10-14T17:07:24.527Z,101331.56
2022-10-14T17:12:24.009Z,101334.34
2022-10-14T17:17:25.362Z,101338.56
2022-10-14T17:22:25.284Z,101330.50
2022-10-14T17:27:26.978Z,101335.69
2022-10-14T17:32:30.712Z,101340.59
2022-10-14T17:37:32.931Z,101342.00
2022-10-14T17:42:35.249Z,101343.28
2022-10-14T17:47:47.450Z,101341.16
2022-10-14T17:53:12.414Z,101343.66
2022-10-14T17:58:13.414Z,101344.94
2022-10-14T18:03:16.169Z,101338.25
2022-10-14T18:08:19.174Z,101343.34
2022-10-14T18:13:18.664Z,101345.56
2022-10-14T18:18:19.252Z,101346.50
2022-10-14T18:23:18.827Z,101341.50
2022-10-14T18:28:19.929Z,101354.34
2022-10-14T18:33:29.710Z,101364.09
2022-10-14T18:38:28.916Z,101359.25
2022-10-14T18:43:29.624Z,101367.41
2022-10-14T18:48:30.059Z,101373.09
2022-10-14T18:53:31.419Z,101383.22
2022-10-14T18:58:30.700Z,101394.63
2022-10-14T19:03:31.868Z,101392.16
2022-10-14T19:08:30.810Z,101395.94
2022-10-14T19:13:29.991Z,101397.94
2022-10-14T19:18:30.364Z,101407.16
2022-10-14T19:23:29.912Z,101411.81
2022-10-14T19:28:28.824Z,101417.69
2022-10-14T19:33:27.883Z,101417.59
2022-10-14T19:38:28.594Z,101426.63
2022-10-14T19:43:31.707Z,101426.81
2022-10-14T19:48:31.250Z,101427.13
2022-10-14T19:53:32.148Z,101431.47
2022-10-14T19:58:31.219Z,101441.97
2022-10-14T20:03:30.285Z,101446.59
2022-10-14T20:08:31.352Z,101455.88
2022-10-14T20:13:31.484Z,101453.88
2022-10-14T20:18:45.885Z,101460.38
2022-10-14T20:23:48.591Z,101454.75
2022-10-14T20:28:52.342Z,101457.56
2022-10-14T20:33:51.683Z,101455.47
2022-10-14T20:38:53.266Z,101458.13
2022-10-14T20:43:55.300Z,101468.22
2022-10-14T20:48:58.383Z,101469.88
2022-10-14T20:54:03.750Z,101473.91
2022-10-14T20:59:06.128Z,101463.91
2022-10-14T21:04:08.994Z,101464.06
2022-10-14T21:09:15.478Z,101469.88
2022-10-14T21:14:14.874Z,101465.28
2022-10-14T21:19:16.362Z,101462.53
2022-10-14T21:24:17.728Z,101461.50
2022-10-14T21:29:17.294Z,101455.88
2022-10-14T21:34:17.111Z,101462.03
2022-10-14T21:39:20.885Z,101468.34
2022-10-14T21:44:25.420Z,101466.00
2022-10-14T21:49:24.704Z,101464.44
2022-10-14T21:54:26.491Z,101476.53
2022-10-14T21:59:26.027Z,101473.03
2022-10-14T22:04:26.400Z,101476.53
2022-10-14T22:09:26.940Z,101466.59
2022-10-14T22:14:26.243Z,101467.59
2022-10-14T22:19:25.330Z,101473.41
2022-10-14T22:24:24.896Z,101468.19
2022-10-14T22:29:26.057Z,101467.66
2022-10-14T22:34:25.086Z,101462.72
2022-10-14T22:39:24.193Z,101464.00
2022-10-14T22:44:23.532Z,101457.84
2022-10-14T22:49:24.129Z,101465.97
2022-10-14T22:54:23.241Z,101457.28
2022-10-14T22:59:22.101Z,101460.88
2022-10-14T23:04:21.138Z,101467.84
2022-10-14T23:09:21.671Z,101469.19
2022-10-14T23:14:21.677Z,101471.38
2022-10-14T23:19:24.291Z,101461.97
2022-10-14T23:24:25.520Z,101465.16
2022-10-14T23:29:24.458Z,101471.94
2022-10-14T23:34:23.498Z,101468.66
2022-10-14T23:39:22.447Z,101480.25
2022-10-14T23:44:22.912Z,101483.97
2022-10-14T23:49:25.913Z,101487.19
2022-10-14T23:54:25.039Z,101481.44
2022-10-14T23:59:25.215Z,101479.53
